sensor_id;sensor_type;location;lat;lon;timestamp;P1;durP1;ratioP1;P2;durP2;ratioP2
30635;SDS011;17400;52.392;9.750;2024-02-28T00:00:11;11.55;;;7.07;;
30635;SDS011;17400;52.392;9.750;2024-02-28T00:02:58;12.20;;;7.30;;
30635;SDS011;17400;52.392;9.750;2024-02-28T00:05:45;13.25;;;7.90;;
30635;SDS011;17400;52.392;9.750;2024-02-28T00:08:32;15.93;;;8.13;;
30635;SDS011;17400;52.392;9.750;2024-02-28T00:11:18;13.00;;;6.72;;
30635;SDS011;17400;52.392;9.750;2024-02-28T00:14:04;11.63;;;6.53;;
30635;SDS011;17400;52.392;9.750;2024-02-28T00:16:50;16.35;;;7.45;;
30635;SDS011;17400;52.392;9.750;2024-02-28T00:19:37;14.50;;;8.55;;
30635;SDS011;17400;52.392;9.750;2024-02-28T00:22:24;14.63;;;8.30;;
30635;SDS011;17400;52.392;9.750;2024-02-28T00:25:10;14.02;;;7.57;;
30635;SDS011;17400;52.392;9.750;2024-02-28T00:27:57;16.30;;;8.32;;
30635;SDS011;17400;52.392;9.750;2024-02-28T00:30:43;13.23;;;7.97;;
30635;SDS011;17400;52.392;9.750;2024-02-28T00:33:29;13.50;;;8.45;;
30635;SDS011;17400;52.392;9.750;2024-02-28T00:36:16;14.90;;;8.02;;
30635;SDS011;17400;52.392;9.750;2024-02-28T00:39:03;14.82;;;8.07;;
30635;SDS011;17400;52.392;9.750;2024-02-28T00:41:49;15.90;;;7.70;;
30635;SDS011;17400;52.392;9.750;2024-02-28T00:44:35;17.85;;;8.63;;
30635;SDS011;17400;52.392;9.750;2024-02-28T00:47:22;13.90;;;8.57;;
30635;SDS011;17400;52.392;9.750;2024-02-28T00:50:08;13.63;;;7.28;;
30635;SDS011;17400;52.392;9.750;2024-02-28T00:52:56;13.80;;;7.57;;
30635;SDS011;17400;52.392;9.750;2024-02-28T00:55:43;14.07;;;7.38;;
30635;SDS011;17400;52.392;9.750;2024-02-28T00:58:30;15.27;;;8.77;;
30635;SDS011;17400;52.392;9.750;2024-02-28T01:01:16;13.73;;;7.93;;
30635;SDS011;17400;52.392;9.750;2024-02-28T01:04:03;12.80;;;7.80;;
30635;SDS011;17400;52.392;9.750;2024-02-28T01:06:49;15.55;;;7.78;;
30635;SDS011;17400;52.392;9.750;2024-02-28T01:09:35;14.13;;;8.17;;
30635;SDS011;17400;52.392;9.750;2024-02-28T01:12:22;14.57;;;8.45;;
30635;SDS011;17400;52.392;9.750;2024-02-28T01:15:09;14.07;;;8.27;;
30635;SDS011;17400;52.392;9.750;2024-02-28T01:17:55;15.88;;;9.05;;
30635;SDS011;17400;52.392;9.750;2024-02-28T01:20:42;13.60;;;8.45;;
30635;SDS011;17400;52.392;9.750;2024-02-28T01:23:28;15.38;;;9.60;;
30635;SDS011;17400;52.392;9.750;2024-02-28T01:26:14;18.42;;;9.73;;
30635;SDS011;17400;52.392;9.750;2024-02-28T01:29:02;15.45;;;8.27;;
30635;SDS011;17400;52.392;9.750;2024-02-28T01:31:48;16.05;;;7.90;;
30635;SDS011;17400;52.392;9.750;2024-02-28T01:34:35;13.87;;;8.10;;
30635;SDS011;17400;52.392;9.750;2024-02-28T01:37:21;16.38;;;8.68;;
30635;SDS011;17400;52.392;9.750;2024-02-28T01:40:07;16.20;;;8.88;;
30635;SDS011;17400;52.392;9.750;2024-02-28T01:42:54;14.15;;;8.35;;
30635;SDS011;17400;52.392;9.750;2024-02-28T01:45:42;13.97;;;7.67;;
30635;SDS011;17400;52.392;9.750;2024-02-28T01:48:29;15.45;;;9.18;;
30635;SDS011;17400;52.392;9.750;2024-02-28T01:51:15;18.45;;;10.65;;
30635;SDS011;17400;52.392;9.750;2024-02-28T01:54:02;14.23;;;7.15;;
30635;SDS011;17400;52.392;9.750;2024-02-28T01:56:49;16.42;;;9.13;;
30635;SDS011;17400;52.392;9.750;2024-02-28T01:59:35;16.52;;;9.40;;
30635;SDS011;17400;52.392;9.750;2024-02-28T02:02:23;15.32;;;9.60;;
30635;SDS011;17400;52.392;9.750;2024-02-28T02:05:10;20.17;;;9.70;;
30635;SDS011;17400;52.392;9.750;2024-02-28T02:07:56;18.63;;;9.53;;
30635;SDS011;17400;52.392;9.750;2024-02-28T02:10:43;15.90;;;8.80;;
30635;SDS011;17400;52.392;9.750;2024-02-28T02:13:30;17.48;;;8.48;;
30635;SDS011;17400;52.392;9.750;2024-02-28T02:16:16;14.45;;;8.98;;
30635;SDS011;17400;52.392;9.750;2024-02-28T02:19:03;17.05;;;8.57;;
30635;SDS011;17400;52.392;9.750;2024-02-28T02:21:52;18.93;;;9.60;;
30635;SDS011;17400;52.392;9.750;2024-02-28T02:24:41;17.65;;;9.05;;
30635;SDS011;17400;52.392;9.750;2024-02-28T02:27:27;14.90;;;8.60;;
30635;SDS011;17400;52.392;9.750;2024-02-28T02:30:13;16.63;;;8.52;;
30635;SDS011;17400;52.392;9.750;2024-02-28T02:32:59;16.73;;;9.55;;
30635;SDS011;17400;52.392;9.750;2024-02-28T02:35:45;17.00;;;8.98;;
30635;SDS011;17400;52.392;9.750;2024-02-28T02:38:31;16.58;;;8.75;;
30635;SDS011;17400;52.392;9.750;2024-02-28T02:41:19;19.75;;;9.70;;
30635;SDS011;17400;52.392;9.750;2024-02-28T02:44:05;17.30;;;8.80;;
30635;SDS011;17400;52.392;9.750;2024-02-28T02:46:51;14.83;;;8.40;;
30635;SDS011;17400;52.392;9.750;2024-02-28T02:49:37;16.88;;;9.23;;
30635;SDS011;17400;52.392;9.750;2024-02-28T02:52:23;17.03;;;7.73;;
30635;SDS011;17400;52.392;9.750;2024-02-28T02:55:09;15.43;;;8.85;;
30635;SDS011;17400;52.392;9.750;2024-02-28T02:57:57;16.87;;;10.17;;
30635;SDS011;17400;52.392;9.750;2024-02-28T03:00:43;18.63;;;9.13;;
30635;SDS011;17400;52.392;9.750;2024-02-28T03:03:29;17.55;;;9.25;;
30635;SDS011;17400;52.392;9.750;2024-02-28T03:06:15;16.80;;;9.07;;
30635;SDS011;17400;52.392;9.750;2024-02-28T03:09:02;19.10;;;9.10;;
30635;SDS011;17400;52.392;9.750;2024-02-28T03:11:49;16.13;;;9.20;;
30635;SDS011;17400;52.392;9.750;2024-02-28T03:14:36;15.55;;;8.27;;
30635;SDS011;17400;52.392;9.750;2024-02-28T03:17:22;18.03;;;9.83;;
30635;SDS011;17400;52.392;9.750;2024-02-28T03:20:09;16.57;;;8.70;;
30635;SDS011;17400;52.392;9.750;2024-02-28T03:22:58;17.40;;;8.77;;
30635;SDS011;17400;52.392;9.750;2024-02-28T03:25:45;17.13;;;9.40;;
30635;SDS011;17400;52.392;9.750;2024-02-28T03:28:30;16.10;;;8.80;;
30635;SDS011;17400;52.392;9.750;2024-02-28T03:31:18;16.43;;;9.13;;
30635;SDS011;17400;52.392;9.750;2024-02-28T03:34:04;16.40;;;10.00;;
30635;SDS011;17400;52.392;9.750;2024-02-28T03:36:50;13.83;;;8.17;;
30635;SDS011;17400;52.392;9.750;2024-02-28T03:39:37;20.77;;;8.50;;
30635;SDS011;17400;52.392;9.750;2024-02-28T03:42:22;15.90;;;8.07;;
30635;SDS011;17400;52.392;9.750;2024-02-28T03:45:08;15.47;;;7.70;;
30635;SDS011;17400;52.392;9.750;2024-02-28T03:47:56;17.43;;;9.53;;
30635;SDS011;17400;52.392;9.750;2024-02-28T03:50:42;19.20;;;9.47;;
30635;SDS011;17400;52.392;9.750;2024-02-28T03:53:28;20.23;;;9.33;;
30635;SDS011;17400;52.392;9.750;2024-02-28T03:56:21;20.92;;;9.30;;
30635;SDS011;17400;52.392;9.750;2024-02-28T03:59:10;18.00;;;10.03;;
30635;SDS011;17400;52.392;9.750;2024-02-28T04:01:56;16.48;;;8.30;;
30635;SDS011;17400;52.392;9.750;2024-02-28T04:04:44;16.87;;;9.93;;
30635;SDS011;17400;52.392;9.750;2024-02-28T04:07:30;20.47;;;10.70;;
30635;SDS011;17400;52.392;9.750;2024-02-28T04:10:16;18.13;;;9.30;;
30635;SDS011;17400;52.392;9.750;2024-02-28T04:13:03;15.60;;;9.60;;
30635;SDS011;17400;52.392;9.750;2024-02-28T04:15:49;18.90;;;9.93;;
30635;SDS011;17400;52.392;9.750;2024-02-28T04:18:35;18.87;;;9.67;;
30635;SDS011;17400;52.392;9.750;2024-02-28T04:21:23;17.67;;;9.87;;
30635;SDS011;17400;52.392;9.750;2024-02-28T04:24:09;16.70;;;8.53;;
30635;SDS011;17400;52.392;9.750;2024-02-28T04:26:57;18.20;;;10.33;;
30635;SDS011;17400;52.392;9.750;2024-02-28T04:29:44;18.77;;;9.50;;
30635;SDS011;17400;52.392;9.750;2024-02-28T04:32:30;13.90;;;8.43;;
30635;SDS011;17400;52.392;9.750;2024-02-28T04:35:17;18.58;;;9.38;;
30635;SDS011;17400;52.392;9.750;2024-02-28T04:38:05;15.20;;;8.43;;
30635;SDS011;17400;52.392;9.750;2024-02-28T04:40:51;12.77;;;8.20;;
30635;SDS011;17400;52.392;9.750;2024-02-28T04:43:37;21.40;;;10.87;;
30635;SDS011;17400;52.392;9.750;2024-02-28T04:46:23;16.83;;;9.47;;
30635;SDS011;17400;52.392;9.750;2024-02-28T04:49:09;18.17;;;8.73;;
30635;SDS011;17400;52.392;9.750;2024-02-28T04:51:55;18.13;;;8.97;;
30635;SDS011;17400;52.392;9.750;2024-02-28T04:54:43;18.13;;;9.63;;
30635;SDS011;17400;52.392;9.750;2024-02-28T04:57:29;17.23;;;9.27;;
30635;SDS011;17400;52.392;9.750;2024-02-28T05:00:15;17.70;;;9.57;;
30635;SDS011;17400;52.392;9.750;2024-02-28T05:03:02;27.30;;;10.57;;
30635;SDS011;17400;52.392;9.750;2024-02-28T05:05:48;19.93;;;10.00;;
30635;SDS011;17400;52.392;9.750;2024-02-28T05:08:36;19.03;;;9.90;;
30635;SDS011;17400;52.392;9.750;2024-02-28T05:11:25;17.77;;;8.80;;
30635;SDS011;17400;52.392;9.750;2024-02-28T05:14:11;18.50;;;9.97;;
30635;SDS011;17400;52.392;9.750;2024-02-28T05:16:58;16.77;;;8.60;;
30635;SDS011;17400;52.392;9.750;2024-02-28T05:19:44;18.33;;;9.30;;
30635;SDS011;17400;52.392;9.750;2024-02-28T05:22:30;16.40;;;8.73;;
30635;SDS011;17400;52.392;9.750;2024-02-28T05:25:17;16.37;;;9.00;;
30635;SDS011;17400;52.392;9.750;2024-02-28T05:28:04;16.23;;;8.33;;
30635;SDS011;17400;52.392;9.750;2024-02-28T05:30:51;16.40;;;9.30;;
30635;SDS011;17400;52.392;9.750;2024-02-28T05:33:37;16.77;;;9.20;;
30635;SDS011;17400;52.392;9.750;2024-02-28T05:36:23;20.93;;;11.80;;
30635;SDS011;17400;52.392;9.750;2024-02-28T05:39:10;20.40;;;9.73;;
30635;SDS011;17400;52.392;9.750;2024-02-28T05:41:56;16.30;;;10.53;;
30635;SDS011;17400;52.392;9.750;2024-02-28T05:44:44;20.07;;;9.77;;
30635;SDS011;17400;52.392;9.750;2024-02-28T05:47:30;20.87;;;10.20;;
30635;SDS011;17400;52.392;9.750;2024-02-28T05:50:16;19.43;;;11.10;;
30635;SDS011;17400;52.392;9.750;2024-02-28T05:53:02;18.50;;;8.43;;
30635;SDS011;17400;52.392;9.750;2024-02-28T05:55:49;22.60;;;10.90;;
30635;SDS011;17400;52.392;9.750;2024-02-28T05:58:35;15.50;;;9.20;;
30635;SDS011;17400;52.392;9.750;2024-02-28T06:01:22;17.07;;;10.03;;
30635;SDS011;17400;52.392;9.750;2024-02-28T06:04:09;18.37;;;9.90;;
30635;SDS011;17400;52.392;9.750;2024-02-28T06:06:55;19.07;;;9.23;;
30635;SDS011;17400;52.392;9.750;2024-02-28T06:09:41;18.43;;;9.87;;
30635;SDS011;17400;52.392;9.750;2024-02-28T06:12:28;18.13;;;9.07;;
30635;SDS011;17400;52.392;9.750;2024-02-28T06:15:14;18.43;;;9.70;;
30635;SDS011;17400;52.392;9.750;2024-02-28T06:18:02;19.47;;;9.70;;
30635;SDS011;17400;52.392;9.750;2024-02-28T06:20:50;20.13;;;9.60;;
30635;SDS011;17400;52.392;9.750;2024-02-28T06:23:37;16.80;;;8.03;;
30635;SDS011;17400;52.392;9.750;2024-02-28T06:26:23;15.27;;;9.10;;
30635;SDS011;17400;52.392;9.750;2024-02-28T06:29:09;19.50;;;10.53;;
30635;SDS011;17400;52.392;9.750;2024-02-28T06:31:56;20.73;;;9.73;;
30635;SDS011;17400;52.392;9.750;2024-02-28T06:34:44;20.70;;;9.83;;
30635;SDS011;17400;52.392;9.750;2024-02-28T06:37:30;19.17;;;10.87;;
30635;SDS011;17400;52.392;9.750;2024-02-28T06:40:16;21.00;;;10.17;;
30635;SDS011;17400;52.392;9.750;2024-02-28T06:43:03;20.37;;;9.23;;
30635;SDS011;17400;52.392;9.750;2024-02-28T06:45:50;20.27;;;10.33;;
30635;SDS011;17400;52.392;9.750;2024-02-28T06:48:36;23.47;;;10.97;;
30635;SDS011;17400;52.392;9.750;2024-02-28T06:51:24;23.00;;;10.60;;
30635;SDS011;17400;52.392;9.750;2024-02-28T06:54:10;23.17;;;12.77;;
30635;SDS011;17400;52.392;9.750;2024-02-28T06:56:57;16.07;;;7.50;;
30635;SDS011;17400;52.392;9.750;2024-02-28T06:59:43;26.43;;;11.73;;
30635;SDS011;17400;52.392;9.750;2024-02-28T07:02:30;19.20;;;10.07;;
30635;SDS011;17400;52.392;9.750;2024-02-28T07:05:16;23.50;;;11.70;;
30635;SDS011;17400;52.392;9.750;2024-02-28T07:08:04;21.13;;;10.13;;
30635;SDS011;17400;52.392;9.750;2024-02-28T07:10:51;21.53;;;10.67;;
30635;SDS011;17400;52.392;9.750;2024-02-28T07:13:39;24.00;;;11.17;;
30635;SDS011;17400;52.392;9.750;2024-02-28T07:16:25;20.00;;;9.37;;
30635;SDS011;17400;52.392;9.750;2024-02-28T07:19:12;24.70;;;12.47;;
30635;SDS011;17400;52.392;9.750;2024-02-28T07:21:58;24.30;;;12.50;;
30635;SDS011;17400;52.392;9.750;2024-02-28T07:24:46;21.27;;;11.60;;
30635;SDS011;17400;52.392;9.750;2024-02-28T07:27:32;25.83;;;11.47;;
30635;SDS011;17400;52.392;9.750;2024-02-28T07:30:19;26.50;;;11.67;;
30635;SDS011;17400;52.392;9.750;2024-02-28T07:33:05;27.10;;;13.30;;
30635;SDS011;17400;52.392;9.750;2024-02-28T07:35:52;26.53;;;13.03;;
30635;SDS011;17400;52.392;9.750;2024-02-28T07:38:38;26.37;;;12.63;;
30635;SDS011;17400;52.392;9.750;2024-02-28T07:41:28;23.33;;;13.13;;
30635;SDS011;17400;52.392;9.750;2024-02-28T07:44:14;24.50;;;10.93;;
30635;SDS011;17400;52.392;9.750;2024-02-28T07:47:01;30.70;;;12.30;;
30635;SDS011;17400;52.392;9.750;2024-02-28T07:49:46;30.87;;;13.17;;
30635;SDS011;17400;52.392;9.750;2024-02-28T07:52:33;23.97;;;12.07;;
30635;SDS011;17400;52.392;9.750;2024-02-28T07:55:20;27.73;;;12.60;;
30635;SDS011;17400;52.392;9.750;2024-02-28T07:58:08;23.57;;;11.20;;
30635;SDS011;17400;52.392;9.750;2024-02-28T08:00:55;25.60;;;13.10;;
30635;SDS011;17400;52.392;9.750;2024-02-28T08:03:41;27.43;;;12.53;;
30635;SDS011;17400;52.392;9.750;2024-02-28T08:06:27;23.07;;;11.80;;
30635;SDS011;17400;52.392;9.750;2024-02-28T08:09:13;25.60;;;12.93;;
30635;SDS011;17400;52.392;9.750;2024-02-28T08:12:00;23.27;;;11.57;;
30635;SDS011;17400;52.392;9.750;2024-02-28T08:14:47;29.50;;;12.50;;
30635;SDS011;17400;52.392;9.750;2024-02-28T08:17:34;30.67;;;14.17;;
30635;SDS011;17400;52.392;9.750;2024-02-28T08:20:20;27.63;;;13.47;;
30635;SDS011;17400;52.392;9.750;2024-02-28T08:23:07;24.70;;;12.50;;
30635;SDS011;17400;52.392;9.750;2024-02-28T08:25:54;25.97;;;12.83;;
30635;SDS011;17400;52.392;9.750;2024-02-28T08:28:40;29.90;;;12.97;;
30635;SDS011;17400;52.392;9.750;2024-02-28T08:31:27;27.57;;;13.20;;
30635;SDS011;17400;52.392;9.750;2024-02-28T08:34:13;30.73;;;13.43;;
30635;SDS011;17400;52.392;9.750;2024-02-28T08:37:00;26.70;;;12.00;;
30635;SDS011;17400;52.392;9.750;2024-02-28T08:39:46;22.80;;;13.03;;
30635;SDS011;17400;52.392;9.750;2024-02-28T08:42:32;29.73;;;13.80;;
30635;SDS011;17400;52.392;9.750;2024-02-28T08:45:18;29.30;;;13.97;;
30635;SDS011;17400;52.392;9.750;2024-02-28T08:48:06;29.73;;;13.00;;
30635;SDS011;17400;52.392;9.750;2024-02-28T08:50:53;26.53;;;11.20;;
30635;SDS011;17400;52.392;9.750;2024-02-28T08:53:39;22.40;;;11.70;;
30635;SDS011;17400;52.392;9.750;2024-02-28T08:56:25;22.67;;;11.60;;
30635;SDS011;17400;52.392;9.750;2024-02-28T08:59:11;28.60;;;14.53;;
30635;SDS011;17400;52.392;9.750;2024-02-28T09:01:58;31.77;;;14.53;;
30635;SDS011;17400;52.392;9.750;2024-02-28T09:04:45;28.47;;;11.47;;
30635;SDS011;17400;52.392;9.750;2024-02-28T09:07:35;31.38;;;13.35;;
30635;SDS011;17400;52.392;9.750;2024-02-28T09:10:22;37.07;;;13.80;;
30635;SDS011;17400;52.392;9.750;2024-02-28T09:13:09;28.70;;;13.90;;
30635;SDS011;17400;52.392;9.750;2024-02-28T09:15:56;35.73;;;17.20;;
30635;SDS011;17400;52.392;9.750;2024-02-28T09:18:43;32.60;;;13.83;;
30635;SDS011;17400;52.392;9.750;2024-02-28T09:21:31;28.53;;;11.77;;
30635;SDS011;17400;52.392;9.750;2024-02-28T09:24:17;30.23;;;14.53;;
30635;SDS011;17400;52.392;9.750;2024-02-28T09:27:03;26.27;;;13.40;;
30635;SDS011;17400;52.392;9.750;2024-02-28T09:29:49;25.13;;;11.63;;
30635;SDS011;17400;52.392;9.750;2024-02-28T09:32:36;34.05;;;14.52;;
30635;SDS011;17400;52.392;9.750;2024-02-28T09:35:22;25.93;;;10.87;;
30635;SDS011;17400;52.392;9.750;2024-02-28T09:38:09;26.80;;;14.25;;
30635;SDS011;17400;52.392;9.750;2024-02-28T09:40:56;35.30;;;14.47;;
30635;SDS011;17400;52.392;9.750;2024-02-28T09:43:42;29.37;;;12.57;;
30635;SDS011;17400;52.392;9.750;2024-02-28T09:46:28;26.55;;;12.95;;
30635;SDS011;17400;52.392;9.750;2024-02-28T09:49:16;23.57;;;11.13;;
30635;SDS011;17400;52.392;9.750;2024-02-28T09:52:03;28.92;;;14.20;;
30635;SDS011;17400;52.392;9.750;2024-02-28T09:54:51;25.40;;;12.32;;
30635;SDS011;17400;52.392;9.750;2024-02-28T09:57:37;29.33;;;13.50;;
30635;SDS011;17400;52.392;9.750;2024-02-28T10:00:25;29.73;;;13.00;;
30635;SDS011;17400;52.392;9.750;2024-02-28T10:03:12;22.98;;;12.23;;
30635;SDS011;17400;52.392;9.750;2024-02-28T10:06:00;30.63;;;13.95;;
30635;SDS011;17400;52.392;9.750;2024-02-28T10:08:50;26.95;;;12.55;;
30635;SDS011;17400;52.392;9.750;2024-02-28T10:11:38;26.02;;;12.70;;
30635;SDS011;17400;52.392;9.750;2024-02-28T10:14:31;28.00;;;12.88;;
30635;SDS011;17400;52.392;9.750;2024-02-28T10:17:18;24.95;;;12.60;;
30635;SDS011;17400;52.392;9.750;2024-02-28T10:20:05;18.95;;;10.15;;
30635;SDS011;17400;52.392;9.750;2024-02-28T10:22:52;21.67;;;10.88;;
30635;SDS011;17400;52.392;9.750;2024-02-28T10:25:41;28.60;;;12.23;;
30635;SDS011;17400;52.392;9.750;2024-02-28T10:28:42;28.42;;;12.30;;
30635;SDS011;17400;52.392;9.750;2024-02-28T10:31:32;27.17;;;13.23;;
30635;SDS011;17400;52.392;9.750;2024-02-28T10:34:18;30.63;;;12.23;;
30635;SDS011;17400;52.392;9.750;2024-02-28T10:37:04;24.98;;;12.25;;
30635;SDS011;17400;52.392;9.750;2024-02-28T10:39:51;25.35;;;12.18;;
30635;SDS011;17400;52.392;9.750;2024-02-28T10:42:38;25.58;;;12.55;;
30635;SDS011;17400;52.392;9.750;2024-02-28T10:45:30;31.10;;;14.25;;
30635;SDS011;17400;52.392;9.750;2024-02-28T10:48:37;27.60;;;13.65;;
30635;SDS011;17400;52.392;9.750;2024-02-28T10:51:24;29.02;;;14.35;;
30635;SDS011;17400;52.392;9.750;2024-02-28T10:54:11;29.40;;;13.25;;
30635;SDS011;17400;52.392;9.750;2024-02-28T10:56:59;27.10;;;12.30;;
30635;SDS011;17400;52.392;9.750;2024-02-28T10:59:46;29.33;;;14.13;;
30635;SDS011;17400;52.392;9.750;2024-02-28T11:02:35;28.13;;;13.32;;
30635;SDS011;17400;52.392;9.750;2024-02-28T11:05:21;31.25;;;14.93;;
30635;SDS011;17400;52.392;9.750;2024-02-28T11:08:08;29.83;;;12.95;;
30635;SDS011;17400;52.392;9.750;2024-02-28T11:10:56;28.58;;;12.82;;
30635;SDS011;17400;52.392;9.750;2024-02-28T11:13:51;34.25;;;14.02;;
30635;SDS011;17400;52.392;9.750;2024-02-28T11:16:38;32.47;;;14.52;;
30635;SDS011;17400;52.392;9.750;2024-02-28T11:19:29;30.23;;;12.30;;
30635;SDS011;17400;52.392;9.750;2024-02-28T11:22:17;29.02;;;13.18;;
30635;SDS011;17400;52.392;9.750;2024-02-28T11:25:06;31.10;;;12.57;;
30635;SDS011;17400;52.392;9.750;2024-02-28T11:27:53;30.27;;;14.00;;
30635;SDS011;17400;52.392;9.750;2024-02-28T11:30:40;28.40;;;14.48;;
30635;SDS011;17400;52.392;9.750;2024-02-28T11:33:26;31.38;;;15.57;;
30635;SDS011;17400;52.392;9.750;2024-02-28T11:36:14;28.42;;;12.38;;
30635;SDS011;17400;52.392;9.750;2024-02-28T11:39:00;28.73;;;11.45;;
30635;SDS011;17400;52.392;9.750;2024-02-28T11:41:47;30.70;;;14.00;;
30635;SDS011;17400;52.392;9.750;2024-02-28T11:44:34;28.10;;;11.20;;
30635;SDS011;17400;52.392;9.750;2024-02-28T11:47:20;28.80;;;11.95;;
30635;SDS011;17400;52.392;9.750;2024-02-28T11:50:07;29.55;;;12.05;;
30635;SDS011;17400;52.392;9.750;2024-02-28T11:52:56;27.92;;;13.70;;
30635;SDS011;17400;52.392;9.750;2024-02-28T11:55:41;33.08;;;14.93;;
30635;SDS011;17400;52.392;9.750;2024-02-28T11:58:27;25.90;;;11.98;;
30635;SDS011;17400;52.392;9.750;2024-02-28T12:01:13;30.70;;;13.43;;
30635;SDS011;17400;52.392;9.750;2024-02-28T12:04:01;26.15;;;12.07;;
30635;SDS011;17400;52.392;9.750;2024-02-28T12:06:48;24.05;;;11.77;;
30635;SDS011;17400;52.392;9.750;2024-02-28T12:09:36;29.42;;;13.57;;
30635;SDS011;17400;52.392;9.750;2024-02-28T12:12:27;33.78;;;13.27;;
30635;SDS011;17400;52.392;9.750;2024-02-28T12:15:13;27.85;;;12.23;;
30635;SDS011;17400;52.392;9.750;2024-02-28T12:18:06;25.85;;;10.90;;
30635;SDS011;17400;52.392;9.750;2024-02-28T12:20:53;19.52;;;11.27;;
30635;SDS011;17400;52.392;9.750;2024-02-28T12:23:40;27.17;;;12.73;;
30635;SDS011;17400;52.392;9.750;2024-02-28T12:26:27;24.35;;;12.35;;
30635;SDS011;17400;52.392;9.750;2024-02-28T12:29:14;27.27;;;12.55;;
30635;SDS011;17400;52.392;9.750;2024-02-28T12:32:00;25.10;;;12.10;;
30635;SDS011;17400;52.392;9.750;2024-02-28T12:34:46;22.70;;;10.75;;
30635;SDS011;17400;52.392;9.750;2024-02-28T12:37:32;27.98;;;13.65;;
30635;SDS011;17400;52.392;9.750;2024-02-28T12:40:18;31.60;;;14.35;;
30635;SDS011;17400;52.392;9.750;2024-02-28T12:43:06;25.23;;;11.73;;
30635;SDS011;17400;52.392;9.750;2024-02-28T12:45:52;31.25;;;13.88;;
30635;SDS011;17400;52.392;9.750;2024-02-28T12:48:39;28.38;;;14.23;;
30635;SDS011;17400;52.392;9.750;2024-02-28T12:51:36;30.42;;;13.65;;
30635;SDS011;17400;52.392;9.750;2024-02-28T12:54:23;32.42;;;13.82;;
30635;SDS011;17400;52.392;9.750;2024-02-28T12:57:09;28.15;;;14.27;;
30635;SDS011;17400;52.392;9.750;2024-02-28T13:00:00;26.48;;;13.68;;
30635;SDS011;17400;52.392;9.750;2024-02-28T13:02:46;28.73;;;14.25;;
30635;SDS011;17400;52.392;9.750;2024-02-28T13:05:33;25.98;;;13.43;;
30635;SDS011;17400;52.392;9.750;2024-02-28T13:08:19;28.17;;;13.43;;
30635;SDS011;17400;52.392;9.750;2024-02-28T13:11:05;28.30;;;14.65;;
30635;SDS011;17400;52.392;9.750;2024-02-28T13:13:52;31.15;;;14.02;;
30635;SDS011;17400;52.392;9.750;2024-02-28T13:16:40;31.15;;;14.80;;
30635;SDS011;17400;52.392;9.750;2024-02-28T13:19:26;29.88;;;13.70;;
30635;SDS011;17400;52.392;9.750;2024-02-28T13:22:12;28.77;;;13.55;;
30635;SDS011;17400;52.392;9.750;2024-02-28T13:24:58;32.17;;;15.27;;
30635;SDS011;17400;52.392;9.750;2024-02-28T13:27:45;28.05;;;14.27;;
30635;SDS011;17400;52.392;9.750;2024-02-28T13:30:31;30.35;;;12.73;;
30635;SDS011;17400;52.392;9.750;2024-02-28T13:33:21;27.10;;;13.25;;
30635;SDS011;17400;52.392;9.750;2024-02-28T13:36:07;28.67;;;13.93;;
30635;SDS011;17400;52.392;9.750;2024-02-28T13:38:54;30.13;;;14.27;;
30635;SDS011;17400;52.392;9.750;2024-02-28T13:41:40;28.17;;;12.50;;
30635;SDS011;17400;52.392;9.750;2024-02-28T13:44:26;25.60;;;13.18;;
30635;SDS011;17400;52.392;9.750;2024-02-28T13:47:13;30.13;;;14.52;;
30635;SDS011;17400;52.392;9.750;2024-02-28T13:50:01;24.75;;;10.80;;
30635;SDS011;17400;52.392;9.750;2024-02-28T13:52:47;27.85;;;12.65;;
30635;SDS011;17400;52.392;9.750;2024-02-28T13:55:33;22.08;;;11.52;;
30635;SDS011;17400;52.392;9.750;2024-02-28T13:58:19;25.85;;;10.93;;
30635;SDS011;17400;52.392;9.750;2024-02-28T14:01:06;24.27;;;10.82;;
30635;SDS011;17400;52.392;9.750;2024-02-28T14:03:52;24.98;;;12.32;;
30635;SDS011;17400;52.392;9.750;2024-02-28T14:06:40;21.13;;;11.00;;
30635;SDS011;17400;52.392;9.750;2024-02-28T14:09:26;23.33;;;9.73;;
30635;SDS011;17400;52.392;9.750;2024-02-28T14:12:13;21.83;;;9.52;;
30635;SDS011;17400;52.392;9.750;2024-02-28T14:14:59;20.67;;;9.93;;
30635;SDS011;17400;52.392;9.750;2024-02-28T14:17:45;19.00;;;8.75;;
30635;SDS011;17400;52.392;9.750;2024-02-28T14:20:32;20.35;;;8.35;;
30635;SDS011;17400;52.392;9.750;2024-02-28T14:23:20;18.17;;;8.80;;
30635;SDS011;17400;52.392;9.750;2024-02-28T14:26:06;20.67;;;8.45;;
30635;SDS011;17400;52.392;9.750;2024-02-28T14:28:53;21.00;;;8.80;;
30635;SDS011;17400;52.392;9.750;2024-02-28T14:31:40;18.20;;;8.98;;
30635;SDS011;17400;52.392;9.750;2024-02-28T14:34:27;25.73;;;10.93;;
30635;SDS011;17400;52.392;9.750;2024-02-28T14:37:16;20.13;;;9.65;;
30635;SDS011;17400;52.392;9.750;2024-02-28T14:40:04;21.05;;;10.05;;
30635;SDS011;17400;52.392;9.750;2024-02-28T14:42:55;18.65;;;8.45;;
30635;SDS011;17400;52.392;9.750;2024-02-28T14:45:42;21.40;;;9.55;;
30635;SDS011;17400;52.392;9.750;2024-02-28T14:48:28;15.93;;;8.70;;
30635;SDS011;17400;52.392;9.750;2024-02-28T14:51:16;18.92;;;8.57;;
30635;SDS011;17400;52.392;9.750;2024-02-28T14:54:04;19.15;;;9.48;;
30635;SDS011;17400;52.392;9.750;2024-02-28T14:56:52;17.50;;;8.57;;
30635;SDS011;17400;52.392;9.750;2024-02-28T14:59:38;25.17;;;10.45;;
30635;SDS011;17400;52.392;9.750;2024-02-28T15:02:25;23.58;;;10.45;;
30635;SDS011;17400;52.392;9.750;2024-02-28T15:05:11;24.13;;;9.52;;
30635;SDS011;17400;52.392;9.750;2024-02-28T15:07:58;20.45;;;8.38;;
30635;SDS011;17400;52.392;9.750;2024-02-28T15:10:44;19.67;;;9.45;;
30635;SDS011;17400;52.392;9.750;2024-02-28T15:13:31;20.00;;;9.20;;
30635;SDS011;17400;52.392;9.750;2024-02-28T15:16:17;22.15;;;9.10;;
30635;SDS011;17400;52.392;9.750;2024-02-28T15:19:03;21.55;;;10.27;;
30635;SDS011;17400;52.392;9.750;2024-02-28T15:21:49;20.13;;;9.65;;
30635;SDS011;17400;52.392;9.750;2024-02-28T15:24:35;19.58;;;8.75;;
30635;SDS011;17400;52.392;9.750;2024-02-28T15:27:22;25.88;;;9.88;;
30635;SDS011;17400;52.392;9.750;2024-02-28T15:30:10;18.85;;;8.43;;
30635;SDS011;17400;52.392;9.750;2024-02-28T15:32:57;20.45;;;9.10;;
30635;SDS011;17400;52.392;9.750;2024-02-28T15:35:43;20.73;;;8.75;;
30635;SDS011;17400;52.392;9.750;2024-02-28T15:38:29;18.90;;;9.48;;
30635;SDS011;17400;52.392;9.750;2024-02-28T15:41:16;22.40;;;10.93;;
30635;SDS011;17400;52.392;9.750;2024-02-28T15:44:02;18.40;;;8.43;;
30635;SDS011;17400;52.392;9.750;2024-02-28T15:46:50;19.20;;;10.05;;
30635;SDS011;17400;52.392;9.750;2024-02-28T15:49:36;20.90;;;10.20;;
30635;SDS011;17400;52.392;9.750;2024-02-28T15:52:25;28.80;;;9.75;;
30635;SDS011;17400;52.392;9.750;2024-02-28T15:55:12;25.60;;;10.45;;
30635;SDS011;17400;52.392;9.750;2024-02-28T15:57:58;23.05;;;10.43;;
30635;SDS011;17400;52.392;9.750;2024-02-28T16:00:44;22.98;;;10.07;;
30635;SDS011;17400;52.392;9.750;2024-02-28T16:03:32;22.30;;;10.27;;
30635;SDS011;17400;52.392;9.750;2024-02-28T16:06:18;23.27;;;10.60;;
30635;SDS011;17400;52.392;9.750;2024-02-28T16:09:14;25.00;;;10.57;;
30635;SDS011;17400;52.392;9.750;2024-02-28T16:12:02;26.13;;;10.85;;
30635;SDS011;17400;52.392;9.750;2024-02-28T16:14:48;24.67;;;10.88;;
30635;SDS011;17400;52.392;9.750;2024-02-28T16:17:34;28.95;;;12.02;;
30635;SDS011;17400;52.392;9.750;2024-02-28T16:20:22;27.27;;;11.60;;
30635;SDS011;17400;52.392;9.750;2024-02-28T16:23:09;31.08;;;12.93;;